Time;durP1;ratioP1;P1;durP2;ratioP2;P2;SDS_P1;SDS_P2;PMS_P1;PMS_P2;Temp;Humidity;BMP_temperature;BMP_pressure;BME280_temperature;BME280_humidity;BME280_pressure;Samples;Min_cycle;Max_cycle;Signal;HPM_P1;HPM_P2
2023/07/02 00:01:42;;;;;;;9.20;3.80;;;15.70;99.90;;;;;;4979621;28;20049;-67
2023/07/02 00:04:09;;;;;;;8.27;4.10;;;15.70;99.90;;;;;;5013408;28;20042;-68
2023/07/02 00:06:40;;;;;;;6.85;3.90;;;15.60;99.90;;;;;;5013525;28;20094;-68
2023/07/02 00:09:13;;;;;;;7.45;3.90;;;15.60;99.90;;;;;;4980848;28;20057;-67
2023/07/02 00:11:39;;;;;;;8.90;3.92;;;15.50;99.90;;;;;;4995550;28;20497;-67
2023/07/02 00:14:09;;;;;;;11.05;3.90;;;15.50;99.90;;;;;;4995874;28;20111;-67
2023/07/02 00:16:38;;;;;;;9.70;4.13;;;15.40;99.90;;;;;;4998140;28;20148;-67
2023/07/02 00:19:04;;;;;;;8.65;4.40;;;15.40;99.90;;;;;;5017968;28;20394;-68
2023/07/02 00:21:33;;;;;;;8.25;4.40;;;15.40;99.90;;;;;;4999690;28;20045;-67
2023/07/02 00:23:59;;;;;;;8.55;4.22;;;15.40;99.90;;;;;;5016752;28;20519;-67
2023/07/02 00:26:26;;;;;;;10.38;4.20;;;15.30;99.90;;;;;;5017064;28;20048;-67
2023/07/02 00:28:54;;;;;;;8.65;4.55;;;15.30;99.90;;;;;;5016914;28;20052;-67
2023/07/02 00:31:19;;;;;;;9.55;4.32;;;15.30;99.90;;;;;;5016862;28;20054;-67
2023/07/02 00:33:45;;;;;;;9.77;4.00;;;15.40;99.90;;;;;;4967035;28;20080;-66
2023/07/02 00:36:14;;;;;;;8.93;4.00;;;15.40;99.90;;;;;;5017508;28;20042;-66
2023/07/02 00:38:44;;;;;;;9.38;4.45;;;15.40;99.90;;;;;;5016748;28;20050;-66
2023/07/02 00:41:11;;;;;;;9.80;4.20;;;15.40;99.90;;;;;;5000195;28;20042;-68
2023/07/02 00:43:43;;;;;;;8.02;4.32;;;15.40;99.90;;;;;;5016578;28;20108;-68
2023/07/02 00:46:22;;;;;;;12.07;4.50;;;15.40;99.90;;;;;;4998924;28;20081;-67
2023/07/02 00:48:48;;;;;;;9.73;4.40;;;15.30;99.90;;;;;;4984653;28;20050;-67
2023/07/02 00:51:16;;;;;;;11.40;4.38;;;15.30;99.90;;;;;;4999218;28;20062;-66
2023/07/02 00:53:45;;;;;;;8.40;3.90;;;15.20;99.90;;;;;;4999996;28;20054;-67
2023/07/02 00:56:10;;;;;;;9.52;4.30;;;15.30;99.90;;;;;;4998904;28;20453;-67
2023/07/02 00:58:39;;;;;;;10.85;4.30;;;15.20;99.90;;;;;;5016432;28;20045;-67
2023/07/02 01:01:05;;;;;;;10.48;4.05;;;15.30;99.90;;;;;;5016240;28;20437;-67
2023/07/02 01:03:32;;;;;;;13.68;4.38;;;15.20;99.90;;;;;;4998909;28;20061;-67
2023/07/02 01:06:01;;;;;;;12.90;4.10;;;15.20;99.90;;;;;;4982929;28;20406;-68
2023/07/02 01:08:27;;;;;;;13.80;4.53;;;15.10;99.90;;;;;;4982510;28;20050;-66
2023/07/02 01:10:53;;;;;;;13.68;4.63;;;15.10;99.90;;;;;;4998639;28;20056;-70
2023/07/02 01:13:21;;;;;;;12.15;4.05;;;15.10;99.90;;;;;;4998738;28;20050;-67
2023/07/02 01:15:48;;;;;;;12.07;4.22;;;15.00;99.90;;;;;;5015983;28;20042;-66
2023/07/02 01:18:15;;;;;;;14.32;4.50;;;14.90;99.90;;;;;;4998940;28;20320;-66
2023/07/02 01:20:42;;;;;;;11.95;4.97;;;14.80;99.90;;;;;;5016538;28;20053;-67
2023/07/02 01:23:09;;;;;;;13.77;4.85;;;14.80;99.90;;;;;;4998662;28;20470;-66
2023/07/02 01:25:36;;;;;;;9.68;4.18;;;14.70;99.90;;;;;;4998167;28;20045;-68
2023/07/02 01:28:05;;;;;;;13.15;4.28;;;14.70;99.90;;;;;;4997912;28;20124;-67
2023/07/02 01:30:30;;;;;;;13.23;4.55;;;14.60;99.90;;;;;;4998231;28;20042;-67
2023/07/02 01:32:56;;;;;;;16.17;4.40;;;14.50;99.90;;;;;;4998233;28;20045;-67
2023/07/02 01:35:22;;;;;;;15.15;4.68;;;14.40;99.90;;;;;;4998322;28;20122;-67
2023/07/02 01:37:48;;;;;;;13.02;4.57;;;14.30;99.90;;;;;;4998139;28;20407;-67
2023/07/02 01:40:14;;;;;;;17.27;4.55;;;14.20;99.90;;;;;;5015590;28;20061;-67
2023/07/02 01:42:39;;;;;;;15.57;5.18;;;14.10;99.90;;;;;;4998112;28;20196;-67
2023/07/02 01:45:06;;;;;;;14.90;4.63;;;14.00;99.90;;;;;;5015469;28;20120;-67
2023/07/02 01:47:31;;;;;;;18.15;4.78;;;13.90;99.90;;;;;;5015389;28;20508;-66
2023/07/02 01:49:57;;;;;;;16.48;5.28;;;13.80;99.90;;;;;;5015423;28;20041;-71
2023/07/02 01:52:23;;;;;;;15.02;5.25;;;13.60;99.90;;;;;;4998904;28;20049;-68
2023/07/02 01:54:48;;;;;;;15.63;4.93;;;13.70;99.90;;;;;;4982688;28;20462;-66
2023/07/02 01:57:14;;;;;;;15.75;5.00;;;13.60;99.90;;;;;;5015724;28;20052;-68
2023/07/02 01:59:40;;;;;;;18.73;5.40;;;13.60;99.90;;;;;;4997812;28;20046;-67
2023/07/02 02:02:06;;;;;;;20.42;5.43;;;13.50;99.90;;;;;;4997612;28;20092;-67
2023/07/02 02:04:31;;;;;;;17.20;5.70;;;13.50;99.90;;;;;;4997714;28;20042;-68
2023/07/02 02:06:57;;;;;;;19.70;5.32;;;13.40;99.90;;;;;;4997530;28;20145;-67
2023/07/02 02:09:23;;;;;;;22.27;6.15;;;13.40;99.90;;;;;;4982245;28;20394;-66
2023/07/02 02:11:50;;;;;;;23.48;5.85;;;13.40;99.90;;;;;;4997740;28;20109;-67
2023/07/02 02:14:16;;;;;;;22.65;6.07;;;13.40;99.90;;;;;;4998345;28;20485;-66
2023/07/02 02:16:45;;;;;;;19.00;5.00;;;13.30;99.90;;;;;;5014903;28;20103;-67
2023/07/02 02:19:12;;;;;;;18.83;5.78;;;13.30;99.90;;;;;;5014847;28;20355;-67
2023/07/02 02:21:37;;;;;;;20.73;5.28;;;13.30;99.90;;;;;;5014911;28;20069;-67
2023/07/02 02:24:03;;;;;;;22.33;5.82;;;13.20;99.90;;;;;;4997288;28;20050;-67
2023/07/02 02:26:29;;;;;;;18.17;5.23;;;13.20;99.90;;;;;;4997542;28;20057;-68
2023/07/02 02:28:55;;;;;;;20.15;5.45;;;13.20;99.90;;;;;;5014401;28;20050;-67
2023/07/02 02:31:21;;;;;;;22.10;5.30;;;13.10;99.90;;;;;;4997134;28;20051;-67
2023/07/02 02:33:46;;;;;;;18.75;5.43;;;13.10;99.90;;;;;;5015432;28;20042;-68
2023/07/02 02:36:12;;;;;;;19.92;5.43;;;13.00;99.90;;;;;;5015018;28;20037;-67
2023/07/02 02:38:38;;;;;;;28.10;6.20;;;13.00;99.90;;;;;;4996481;28;20077;-67
2023/07/02 02:41:04;;;;;;;20.00;5.47;;;13.00;99.90;;;;;;5015016;28;20458;-70
2023/07/02 02:43:29;;;;;;;25.92;5.75;;;13.00;99.90;;;;;;5015244;28;20121;-67
2023/07/02 02:45:55;;;;;;;18.65;5.90;;;12.90;99.90;;;;;;4997974;28;20584;-66
2023/07/02 02:48:22;;;;;;;21.27;6.13;;;12.90;99.90;;;;;;4997350;28;20133;-69
2023/07/02 02:50:48;;;;;;;23.10;5.82;;;12.90;99.90;;;;;;5014323;28;20050;-67
2023/07/02 02:53:14;;;;;;;23.80;5.82;;;12.90;99.90;;;;;;4997085;28;20046;-68
2023/07/02 02:55:40;;;;;;;21.05;5.90;;;12.90;99.90;;;;;;4997284;28;20037;-67
2023/07/02 02:58:05;;;;;;;19.58;5.88;;;12.90;99.90;;;;;;4980858;28;20128;-67
2023/07/02 03:00:31;;;;;;;28.17;6.32;;;12.80;99.90;;;;;;4996708;28;20049;-65
2023/07/02 03:02:58;;;;;;;24.17;5.68;;;12.80;99.90;;;;;;5014744;28;20045;-66
2023/07/02 03:05:24;;;;;;;23.73;6.50;;;12.80;99.90;;;;;;4997433;28;20104;-67
2023/07/02 03:07:51;;;;;;;19.90;5.18;;;12.80;99.90;;;;;;4995901;28;20119;-67
2023/07/02 03:10:16;;;;;;;;;;;12.80;99.90;;;;;;4996510;28;20089;-68
2023/07/02 03:12:42;;;;;;;24.97;6.03;;;12.80;99.90;;;;;;4980609;28;19964;-67
2023/07/02 03:15:09;;;;;;;24.92;6.00;;;12.80;99.90;;;;;;4980368;28;20046;-71
2023/07/02 03:17:35;;;;;;;20.35;5.80;;;12.80;99.90;;;;;;4964574;28;20096;-66
2023/07/02 03:20:03;;;;;;;18.73;6.50;;;12.80;99.90;;;;;;5014278;28;20085;-67
2023/07/02 03:22:29;;;;;;;19.83;5.97;;;12.70;99.90;;;;;;5013975;28;20046;-67
2023/07/02 03:24:55;;;;;;;27.42;6.65;;;12.70;99.90;;;;;;4996486;28;20568;-67
2023/07/02 03:27:20;;;;;;;25.60;5.97;;;12.70;99.90;;;;;;4996500;28;20049;-67
2023/07/02 03:29:46;;;;;;;24.83;6.25;;;12.70;99.90;;;;;;4996329;28;20390;-68
2023/07/02 03:32:12;;;;;;;23.67;6.43;;;12.70;99.90;;;;;;4996271;28;20092;-67
2023/07/02 03:34:37;;;;;;;21.75;5.53;;;12.70;99.90;;;;;;4996531;28;20038;-67
2023/07/02 03:37:03;;;;;;;18.73;5.95;;;12.70;99.90;;;;;;4979884;28;20045;-66
2023/07/02 03:39:29;;;;;;;24.17;6.40;;;12.80;99.90;;;;;;5014315;28;20042;-67
2023/07/02 03:41:55;;;;;;;23.13;6.63;;;12.80;99.90;;;;;;4996279;28;20053;-66
2023/07/02 03:44:20;;;;;;;18.67;5.80;;;12.80;99.90;;;;;;5013674;28;20136;-67
2023/07/02 03:46:46;;;;;;;20.90;5.53;;;12.80;99.90;;;;;;5014430;28;20506;-67
2023/07/02 03:49:12;;;;;;;24.17;6.90;;;12.80;99.90;;;;;;4996215;28;20045;-70
2023/07/02 03:51:38;;;;;;;19.63;5.55;;;12.80;99.90;;;;;;5017763;28;20042;-67
2023/07/02 03:54:04;;;;;;;25.92;7.22;;;12.80;99.90;;;;;;5017463;28;20512;-68
2023/07/02 03:56:30;;;;;;;24.65;6.45;;;12.80;99.90;;;;;;5017496;28;20046;-67
2023/07/02 03:58:55;;;;;;;23.30;5.90;;;12.80;99.90;;;;;;4983812;28;20104;-66
2023/07/02 04:01:21;;;;;;;22.30;6.13;;;12.90;99.90;;;;;;5017457;28;20046;-66
2023/07/02 04:03:51;;;;;;;27.35;6.10;;;12.90;99.90;;;;;;5018037;28;20049;-66
2023/07/02 04:06:17;;;;;;;24.80;6.13;;;12.90;99.90;;;;;;4983301;28;20054;-67
2023/07/02 04:08:44;;;;;;;21.05;6.00;;;13.00;99.90;;;;;;5000002;28;20060;-67
2023/07/02 04:11:11;;;;;;;24.10;6.07;;;13.00;99.90;;;;;;5017442;28;20108;-67
2023/07/02 04:13:37;;;;;;;21.50;5.65;;;13.10;99.90;;;;;;5017012;28;20576;-67
2023/07/02 04:16:03;;;;;;;17.95;6.50;;;13.10;99.90;;;;;;5017263;28;20053;-67
2023/07/02 04:18:31;;;;;;;21.05;6.13;;;13.20;99.90;;;;;;4984466;28;20060;-66
2023/07/02 04:20:58;;;;;;;27.27;6.40;;;13.20;99.90;;;;;;5017195;28;20046;-67
2023/07/02 04:23:24;;;;;;;21.38;6.00;;;13.20;99.90;;;;;;5017668;28;20046;-67
2023/07/02 04:25:50;;;;;;;20.83;5.82;;;13.30;99.90;;;;;;4983293;28;20046;-67
2023/07/02 04:28:16;;;;;;;21.92;5.82;;;13.40;99.90;;;;;;4999768;28;20124;-66
2023/07/02 04:30:42;;;;;;;26.20;6.10;;;13.40;99.90;;;;;;5000058;28;20054;-66
2023/07/02 04:33:07;;;;;;;24.02;6.05;;;13.40;99.90;;;;;;5017004;28;20056;-66
2023/07/02 04:35:34;;;;;;;25.40;5.97;;;13.50;99.90;;;;;;4999788;28;20049;-66
2023/07/02 04:38:00;;;;;;;23.85;6.43;;;13.50;99.90;;;;;;4983597;28;20397;-67
2023/07/02 04:40:27;;;;;;;16.75;5.68;;;13.60;99.90;;;;;;5017112;28;20125;-67
2023/07/02 04:42:57;;;;;;;22.95;6.15;;;13.60;99.90;;;;;;4984116;28;20064;-66
2023/07/02 04:45:24;;;;;;;22.83;6.30;;;13.70;99.90;;;;;;4999814;28;20093;-67
2023/07/02 04:47:50;;;;;;;22.90;5.63;;;13.70;99.90;;;;;;5016730;28;20050;-67
2023/07/02 04:50:17;;;;;;;24.70;6.23;;;13.80;99.90;;;;;;4999236;28;20054;-68
2023/07/02 04:52:43;;;;;;;18.48;5.68;;;13.80;99.90;;;;;;4999339;28;20300;-66
2023/07/02 04:55:09;;;;;;;20.58;5.55;;;13.90;99.90;;;;;;4982767;28;20062;-66
2023/07/02 04:57:35;;;;;;;22.85;5.47;;;14.00;99.90;;;;;;5016599;28;20069;-67
2023/07/02 05:00:01;;;;;;;20.67;5.32;;;14.20;99.90;;;;;;5016505;28;20498;-67
2023/07/02 05:02:27;;;;;;;23.42;5.63;;;14.20;99.90;;;;;;5015482;28;20073;-66
2023/07/02 05:04:52;;;;;;;20.58;5.78;;;14.30;99.90;;;;;;4998796;28;20104;-67
2023/07/02 05:07:18;;;;;;;23.17;5.70;;;14.40;99.90;;;;;;5016589;28;20063;-67
2023/07/02 05:09:44;;;;;;;20.88;5.75;;;14.50;99.90;;;;;;4998874;28;20462;-66
2023/07/02 05:12:10;;;;;;;24.40;5.50;;;14.60;99.90;;;;;;5016219;28;20046;-68
2023/07/02 05:14:35;;;;;;;19.80;5.88;;;14.60;99.90;;;;;;5016125;28;20120;-67
2023/07/02 05:17:01;;;;;;;20.92;6.40;;;14.60;99.90;;;;;;4998623;28;20486;-67
2023/07/02 05:19:27;;;;;;;22.70;5.65;;;14.60;99.90;;;;;;4998991;28;20038;-66
2023/07/02 05:21:52;;;;;;;21.35;5.85;;;14.60;99.90;;;;;;4998585;28;20220;-66
2023/07/02 05:24:18;;;;;;;24.77;6.18;;;14.50;99.90;;;;;;5015704;28;20549;-67
2023/07/02 05:26:44;;;;;;;19.02;5.68;;;14.50;99.90;;;;;;5015919;28;20045;-66
2023/07/02 05:29:10;;;;;;;23.90;6.05;;;14.50;99.90;;;;;;4950436;28;20081;-66
2023/07/02 05:31:35;;;;;;;23.52;6.38;;;14.60;99.90;;;;;;4998579;28;20041;-67
2023/07/02 05:34:01;;;;;;;28.13;6.03;;;14.60;99.90;;;;;;4998403;28;20046;-68
2023/07/02 05:36:27;;;;;;;22.92;6.13;;;14.70;99.90;;;;;;4999022;28;20124;-67
2023/07/02 05:38:52;;;;;;;19.35;5.65;;;14.80;99.90;;;;;;4998420;28;20394;-67
2023/07/02 05:41:19;;;;;;;24.75;5.88;;;14.80;99.90;;;;;;4998294;28;20050;-67
2023/07/02 05:43:45;;;;;;;23.10;5.95;;;14.90;99.90;;;;;;4998543;28;20375;-66
2023/07/02 05:46:12;;;;;;;24.25;6.40;;;14.90;99.90;;;;;;4998495;28;20122;-66
2023/07/02 05:48:37;;;;;;;;;;;15.00;99.90;;;;;;5015796;28;20057;-68
2023/07/02 05:51:03;;;;;;;22.97;5.53;;;15.10;99.90;;;;;;5015767;28;20004;-67
2023/07/02 05:53:29;;;;;;;23.13;5.50;;;15.20;99.90;;;;;;4981796;28;20050;-66
2023/07/02 05:55:55;;;;;;;22.65;5.82;;;15.30;99.90;;;;;;5015539;28;20085;-66
2023/07/02 05:58:21;;;;;;;23.83;5.18;;;15.50;99.90;;;;;;4998023;28;20145;-67
2023/07/02 06:00:49;;;;;;;26.80;5.63;;;15.60;99.90;;;;;;4998722;28;20061;-66
2023/07/02 06:03:19;;;;;;;21.70;5.45;;;15.70;99.90;;;;;;5015211;28;20379;-67
2023/07/02 06:05:47;;;;;;;25.75;6.15;;;15.80;99.90;;;;;;5014881;28;20474;-68
2023/07/02 06:08:14;;;;;;;19.10;5.32;;;15.90;99.90;;;;;;4997431;28;20097;-66
2023/07/02 06:10:39;;;;;;;24.87;5.17;;;15.90;99.90;;;;;;4981349;28;20073;-68
2023/07/02 06:13:05;;;;;;;25.80;5.40;;;16.00;99.90;;;;;;4998243;28;20054;-65
2023/07/02 06:15:31;;;;;;;23.13;5.78;;;16.00;99.90;;;;;;5014902;28;20048;-68
2023/07/02 06:17:56;;;;;;;20.27;5.22;;;16.20;99.90;;;;;;5014956;28;20081;-66
2023/07/02 06:20:22;;;;;;;19.77;4.63;;;16.20;99.90;;;;;;4997858;28;20053;-67
2023/07/02 06:22:48;;;;;;;19.15;4.32;;;16.30;99.90;;;;;;4997512;28;20069;-66
2023/07/02 06:25:14;;;;;;;22.42;5.38;;;16.30;99.90;;;;;;4982183;28;20034;-68
2023/07/02 06:27:39;;;;;;;22.98;5.57;;;16.40;99.90;;;;;;5014715;28;20458;-67
2023/07/02 06:30:06;;;;;;;19.52;4.35;;;16.40;99.90;;;;;;5014716;28;20050;-68
2023/07/02 06:32:32;;;;;;;22.35;5.38;;;16.50;99.90;;;;;;5014697;28;20394;-67
2023/07/02 06:34:58;;;;;;;20.98;4.22;;;16.60;99.90;;;;;;4997140;28;20042;-67
2023/07/02 06:37:23;;;;;;;18.65;4.82;;;16.70;99.90;;;;;;4997249;28;20049;-66
2023/07/02 06:39:49;;;;;;;20.27;5.22;;;16.70;99.90;;;;;;5014446;28;20134;-66
2023/07/02 06:42:15;;;;;;;20.40;4.90;;;16.70;99.90;;;;;;4997029;28;20128;-66
2023/07/02 06:44:41;;;;;;;22.25;4.80;;;16.70;99.90;;;;;;5014439;28;20052;-65
2023/07/02 06:47:07;;;;;;;18.58;4.95;;;16.90;99.90;;;;;;4997237;28;20046;-67
2023/07/02 06:49:33;;;;;;;15.15;3.08;;;16.90;99.90;;;;;;5014473;28;20053;-66
2023/07/02 06:52:00;;;;;;;19.23;4.28;;;16.90;99.90;;;;;;5014085;28;20410;-67
2023/07/02 06:54:26;;;;;;;19.00;4.72;;;17.00;99.90;;;;;;5014024;28;20597;-66
2023/07/02 06:56:51;;;;;;;16.35;4.40;;;17.10;99.90;;;;;;5014168;28;20129;-67
2023/07/02 06:59:22;;;;;;;19.30;5.47;;;17.10;99.90;;;;;;4997678;28;20485;-66
2023/07/02 07:01:47;;;;;;;19.17;4.85;;;17.20;99.90;;;;;;5014092;28;20042;-67
2023/07/02 07:04:13;;;;;;;18.77;4.32;;;17.40;99.90;;;;;;5014125;28;20052;-67
2023/07/02 07:06:39;;;;;;;15.57;4.17;;;17.50;99.90;;;;;;5014070;28;20042;-68
2023/07/02 07:09:05;;;;;;;23.13;4.63;;;17.50;99.90;;;;;;4996096;28;20054;-65
2023/07/02 07:11:31;;;;;;;18.42;4.68;;;17.50;99.90;;;;;;4996922;28;20050;-66
2023/07/02 07:13:57;;;;;;;18.57;4.70;;;17.40;99.90;;;;;;4996938;28;20131;-66
2023/07/02 07:16:23;;;;;;;18.10;4.83;;;17.50;99.90;;;;;;4997036;28;20050;-67
2023/07/02 07:18:49;;;;;;;18.63;4.20;;;17.50;99.90;;;;;;4996384;28;20050;-66
2023/07/02 07:21:14;;;;;;;12.87;3.90;;;17.80;99.90;;;;;;5014677;28;20052;-65
2023/07/02 07:23:40;;;;;;;18.87;4.73;;;17.90;99.90;;;;;;4996448;28;20133;-68
2023/07/02 07:26:06;;;;;;;15.67;4.43;;;17.90;99.90;;;;;;4996079;28;20038;-67
2023/07/02 07:28:32;;;;;;;18.55;4.55;;;17.80;99.90;;;;;;4996821;28;20056;-67
2023/07/02 07:30:58;;;;;;;20.67;4.33;;;17.70;99.90;;;;;;5013546;28;20379;-67
2023/07/02 07:33:24;;;;;;;15.18;3.97;;;17.50;99.90;;;;;;4980219;28;20049;-66
2023/07/02 07:35:49;;;;;;;17.05;4.25;;;17.40;99.90;;;;;;4979950;28;20098;-68
2023/07/02 07:38:15;;;;;;;17.58;4.32;;;17.30;99.90;;;;;;4964137;28;20123;-68
2023/07/02 07:40:43;;;;;;;14.38;4.22;;;17.20;99.90;;;;;;5013265;28;20516;-66
2023/07/02 07:43:08;;;;;;;13.07;2.95;;;17.00;99.90;;;;;;5013708;28;20466;-67
2023/07/02 07:45:34;;;;;;;13.60;3.90;;;17.20;99.90;;;;;;4979764;28;20195;-66
2023/07/02 07:48:00;;;;;;;18.00;4.07;;;17.20;99.90;;;;;;4995807;28;20065;-66
2023/07/02 07:50:26;;;;;;;18.65;3.70;;;17.20;99.90;;;;;;5013379;28;20049;-67
2023/07/02 07:52:52;;;;;;;12.50;3.70;;;17.20;99.90;;;;;;4996581;28;20386;-67
2023/07/02 07:55:18;;;;;;;11.85;3.22;;;17.20;99.90;;;;;;4996184;28;20045;-66
2023/07/02 07:57:43;;;;;;;11.07;3.07;;;17.10;99.90;;;;;;4995849;28;20049;-68
2023/07/02 08:00:10;;;;;;;12.77;2.90;;;17.20;99.90;;;;;;5013173;28;20092;-67
2023/07/02 08:02:35;;;;;;;13.07;3.37;;;17.30;99.90;;;;;;4995783;28;20119;-66
2023/07/02 08:05:02;;;;;;;12.25;2.92;;;17.40;99.90;;;;;;4996058;28;20292;-67
2023/07/02 08:07:28;;;;;;;12.90;3.10;;;17.50;99.90;;;;;;5013128;28;20066;-66
2023/07/02 08:09:54;;;;;;;11.35;2.50;;;17.60;99.90;;;;;;4979749;28;20167;-66
2023/07/02 08:12:19;;;;;;;10.23;2.57;;;17.70;99.90;;;;;;4979685;28;20404;-66
2023/07/02 08:14:45;;;;;;;11.55;2.70;;;17.90;99.90;;;;;;4996214;28;20128;-70
2023/07/02 08:17:11;;;;;;;13.00;2.20;;;18.20;99.90;;;;;;4995676;28;20045;-65
2023/07/02 08:19:37;;;;;;;12.55;2.25;;;18.50;99.90;;;;;;4996180;28;20045;-66
2023/07/02 08:22:02;;;;;;;7.13;1.73;;;18.80;99.90;;;;;;4995533;28;20050;-67
2023/07/02 08:24:30;;;;;;;6.97;2.30;;;19.10;99.90;;;;;;4979281;28;20052;-66
2023/07/02 08:26:56;;;;;;;9.18;2.40;;;19.30;99.90;;;;;;5013794;28;20113;-68
2023/07/02 08:29:22;;;;;;;11.60;2.43;;;19.40;99.90;;;;;;4995738;28;20147;-67
2023/07/02 08:31:48;;;;;;;9.57;2.60;;;19.30;99.90;;;;;;4995482;28;20370;-67
2023/07/02 08:34:13;;;;;;;6.20;1.60;;;19.20;99.90;;;;;;4995593;28;20050;-67
2023/07/02 08:36:39;;;;;;;9.98;1.77;;;19.10;99.90;;;;;;4980125;28;20042;-66
2023/07/02 08:39:05;;;;;;;9.80;2.10;;;19.10;99.90;;;;;;5016482;28;20049;-67
2023/07/02 08:41:41;;;;;;;10.20;1.63;;;19.30;99.90;;;;;;5016554;28;20068;-68
2023/07/02 08:44:07;;;;;;;8.47;2.13;;;19.30;99.90;;;;;;4999824;28;20046;-66
2023/07/02 08:46:33;;;;;;;7.15;1.17;;;;;;;;;;4998778;28;20299;-67
2023/07/02 08:48:59;;;;;;;5.93;1.30;;;;;;;;;;4998928;28;20362;-66
2023/07/02 08:51:25;;;;;;;7.13;1.50;;;;;;;;;;4983023;28;20100;-67
2023/07/02 08:53:51;;;;;;;4.97;1.50;;;;;;;;;;4998716;28;20364;-68
2023/07/02 08:56:17;;;;;;;8.83;2.20;;;;;;;;;;4982660;28;20038;-67
2023/07/02 08:58:44;;;;;;;10.47;1.70;;;;;;;;;;5016409;28;20166;-68
2023/07/02 09:01:11;;;;;;;9.38;1.80;;;;;;;;;;5016460;28;20700;-67
2023/07/02 09:03:38;;;;;;;9.77;2.03;;;;;;;;;;4982657;28;20124;-66
2023/07/02 09:06:05;;;;;;;8.68;1.90;;;;;;;;;;4998901;28;20133;-67
2023/07/02 09:08:33;;;;;;;8.32;1.38;;;;;;;;;;4982162;28;20149;-67
2023/07/02 09:11:06;;;;;;;11.55;2.67;;;;;;;;;;5016011;28;20058;-67
2023/07/02 09:13:42;;;;;;;9.75;2.00;;;;;;;;;;5016194;28;20053;-67
2023/07/02 09:16:08;;;;;;;6.85;2.08;;;;;;;;;;4998466;28;20042;-67
2023/07/02 09:18:34;;;;;;;11.80;2.63;;;;;;;;;;4982527;28;20050;-67
2023/07/02 09:21:00;;;;;;;8.13;2.33;;;;;;;;;;5015754;28;20050;-69
2023/07/02 09:23:35;;;;;;;14.50;2.87;;;;;;;;;;5015818;28;20285;-67
2023/07/02 09:26:01;;;;;;;10.57;2.60;;;;;;;;;;5015693;28;20284;-67
2023/07/02 09:28:27;;;;;;;14.53;3.27;;;;;;;;;;5015572;28;20056;-67
2023/07/02 09:30:57;;;;;;;15.67;3.33;;;;;;;;;;4998047;28;20314;-68
2023/07/02 09:33:24;;;;;;;14.35;2.85;;;;;;;;;;4997819;28;20814;-67
2023/07/02 09:35:51;;;;;;;13.52;2.83;;;;;;;;;;5015969;28;20081;-68
2023/07/02 09:38:20;;;;;;;12.63;2.63;;;;;;;;;;5015454;28;20133;-67
2023/07/02 09:40:50;;;;;;;20.02;3.72;;;;;;;;;;4998245;28;20052;-68
2023/07/02 09:43:16;;;;;;;8.98;2.47;;;;;;;;;;5015118;28;20049;-67
2023/07/02 09:45:43;;;;;;;8.55;2.92;;;;;;;;;;5015786;28;20397;-67
2023/07/02 09:48:11;;;;;;;12.18;3.00;;;;;;;;;;5014973;28;20092;-66
2023/07/02 09:50:38;;;;;;;12.80;2.83;;;;;;;;;;4997561;28;20045;-67
2023/07/02 09:53:04;;;;;;;;;;;;;;;;;;4998075;28;20054;-68
2023/07/02 09:55:30;;;;;;;11.70;2.60;;;;;;;;;;4997875;28;19929;-68
2023/07/02 09:57:56;;;;;;;14.43;3.00;;;;;;;;;;5015307;28;20080;-66
2023/07/02 10:00:22;;;;;;;12.00;3.20;;;;;;;;;;4981711;28;20046;-67
2023/07/02 10:02:49;;;;;;;10.75;2.72;;;;;;;;;;5015187;28;20052;-68
2023/07/02 10:05:28;;;;;;;11.75;2.50;;;;;;;;;;4997688;28;20057;-67
2023/07/02 10:07:55;;;;;;;10.05;2.10;;;;;;;;;;5014893;28;20065;-68
2023/07/02 10:10:31;;;;;;;9.70;2.50;;;;;;;;;;4997761;28;20057;-67
2023/07/02 10:12:58;;;;;;;11.93;2.45;;;;;;;;;;5015566;28;20053;-68
2023/07/02 10:15:28;;;;;;;10.95;2.40;;;;;;;;;;5014851;28;20085;-67
2023/07/02 10:17:57;;;;;;;13.18;2.28;;;;;;;;;;4982182;28;20061;-68
2023/07/02 10:20:33;;;;;;;13.77;2.80;;;;;;;;;;4997528;28;20104;-66
2023/07/02 10:23:01;;;;;;;7.55;2.63;;;;;;;;;;4981350;28;20133;-67
2023/07/02 10:25:29;;;;;;;9.60;1.77;;;;;;;;;;5015040;28;20077;-66
2023/07/02 10:27:55;;;;;;;10.63;2.17;;;;;;;;;;5015295;28;20088;-68
2023/07/02 10:30:31;;;;;;;9.95;2.30;;;;;;;;;;5014534;28;20045;-68
2023/07/02 10:33:08;;;;;;;9.48;1.92;;;;;;;;;;5014998;28;20440;-67
2023/07/02 10:35:34;;;;;;;8.43;2.00;;;;;;;;;;4997451;28;20046;-67
2023/07/02 10:38:00;;;;;;;13.15;2.20;;;;;;;;;;4997524;28;20056;-67
2023/07/02 10:40:26;;;;;;;9.55;2.05;;;;;;;;;;5014888;28;20050;-68
2023/07/02 10:42:53;;;;;;;10.43;2.10;;;;;;;;;;5014547;28;20080;-67
2023/07/02 10:45:20;;;;;;;9.95;2.08;;;;;;;;;;4997116;28;20058;-69
2023/07/02 10:47:46;;;;;;;7.75;2.00;;;;;;;;;;5015231;28;20386;-68
2023/07/02 10:50:16;;;;;;;8.40;2.20;;;;;;;;;;5014897;28;20149;-67
2023/07/02 10:52:42;;;;;;;10.68;2.08;;;;;;;;;;4996817;28;20129;-68
2023/07/02 10:55:09;;;;;;;7.50;2.00;;;;;;;;;;5014161;28;20108;-68
2023/07/02 10:57:35;;;;;;;;;;;;;;;;;;5015240;28;20060;-67
2023/07/02 11:00:07;;;;;;;13.00;1.80;;;;;;;;;;4979759;28;19921;-68
2023/07/02 11:02:37;;;;;;;11.73;1.92;;;;;;;;;;4997157;28;20096;-69
2023/07/02 11:05:03;;;;;;;9.25;2.00;;;;;;;;;;5014103;28;20084;-67
2023/07/02 11:07:29;;;;;;;12.88;2.10;;;;;;;;;;4964531;28;20045;-68
2023/07/02 11:09:55;;;;;;;12.17;2.37;;;;;;;;;;4996287;28;20058;-66
2023/07/02 11:12:28;;;;;;;6.40;1.63;;;;;;;;;;4996613;28;20301;-69
2023/07/02 11:14:54;;;;;;;6.95;1.90;;;;;;;;;;4996514;28;20787;-70
2023/07/02 11:17:25;;;;;;;8.07;1.60;;;;;;;;;;4996301;28;20049;-67
2023/07/02 11:19:52;;;;;;;12.85;1.88;;;;;;;;;;4981035;28;20054;-68
2023/07/02 11:22:18;;;;;;;11.85;1.95;;;;;;;;;;4996972;28;20128;-67
2023/07/02 11:26:23;;;;;;;9.15;2.20;;;;;;;;;;5130282;27;20157;-69
2023/07/02 11:28:51;;;;;;;7.50;2.42;;;;;;;;;;5128347;28;20084;-68
2023/07/02 11:31:25;;;;;;;9.10;1.90;;;;;;;;;;5112295;28;20142;-66
2023/07/02 11:33:51;;;;;;;6.75;1.85;;;;;;;;;;5131151;27;20043;-67
2023/07/02 11:36:22;;;;;;;6.70;1.85;;;;;;;;;;5120510;28;20043;-67
2023/07/02 11:38:49;;;;;;;9.05;2.05;;;;;;;;;;5108751;28;20048;-66
2023/07/02 11:41:16;;;;;;;14.90;2.25;;;;;;;;;;5109391;28;20098;-66
2023/07/02 11:43:42;;;;;;;11.23;2.15;;;;;;;;;;5128163;28;20051;-67
2023/07/02 11:46:08;;;;;;;7.38;1.95;;;;;;;;;;5130380;28;20047;-67
2023/07/02 11:48:34;;;;;;;7.63;1.85;;;;;;;;;;5111822;28;20138;-68
2023/07/02 11:51:00;;;;;;;10.82;1.90;;;;;;;;;;5130381;28;20093;-67
2023/07/02 11:53:26;;;;;;;12.85;2.30;;;;;;;;;;5120393;28;20048;-67
2023/07/02 11:55:52;;;;;;;11.40;2.42;;;;;;;;;;5109476;28;20547;-67
2023/07/02 11:58:18;;;;;;;9.63;1.80;;;;;;;;;;5109376;28;20040;-66
2023/07/02 12:00:44;;;;;;;11.70;1.85;;;;;;;;;;5108616;28;20446;-67
2023/07/02 12:03:10;;;;;;;8.80;1.83;;;;;;;;;;5109556;28;20052;-66
2023/07/02 12:05:36;;;;;;;7.38;1.85;;;;;;;;;;5109142;28;20419;-68
2023/07/02 12:08:03;;;;;;;9.88;2.20;;;;;;;;;;5109630;28;20055;-67
2023/07/02 12:10:29;;;;;;;9.50;1.67;;;;;;;;;;5117650;28;20051;-68
2023/07/02 12:12:55;;;;;;;8.52;1.52;;;;;;;;;;5146432;27;20483;-66
2023/07/02 12:15:21;;;;;;;7.97;1.67;;;;;;;;;;5129762;28;20104;-69
2023/07/02 12:17:48;;;;;;;10.65;2.35;;;;;;;;;;5129832;28;20065;-67
2023/07/02 12:20:17;;;;;;;8.18;1.70;;;;;;;;;;5128114;28;20043;-67
2023/07/02 12:22:44;;;;;;;8.23;1.83;;;;;;;;;;5129979;28;20149;-69
2023/07/02 12:25:10;;;;;;;6.68;1.40;;;;;;;;;;5127989;28;20090;-67
2023/07/02 12:27:36;;;;;;;6.57;1.40;;;;;;;;;;5117900;27;20288;-66
2023/07/02 12:30:03;;;;;;;8.02;2.00;;;;;;;;;;5108008;28;20075;-67
2023/07/02 12:32:30;;;;;;;7.60;1.98;;;;;;;;;;5108837;28;20054;-68
2023/07/02 12:34:56;;;;;;;6.03;1.60;;;;;;;;;;5107763;28;20176;-67
2023/07/02 12:37:22;;;;;;;9.32;1.77;;;;;;;;;;5095761;28;20044;-69
2023/07/02 12:39:48;;;;;;;10.55;2.00;;;;;;;;;;5095591;28;20054;-66
2023/07/02 12:42:14;;;;;;;8.63;1.67;;;;;;;;;;5094296;28;20051;-68
2023/07/02 12:44:40;;;;;;;7.88;1.80;;;;;;;;;;5095924;28;20161;-68
2023/07/02 12:47:06;;;;;;;8.68;1.77;;;;;;;;;;5094133;28;20051;-67
2023/07/02 12:49:32;;;;;;;5.45;1.30;;;;;;;;;;5095193;28;20052;-67
2023/07/02 12:51:58;;;;;;;9.95;1.67;;;;;;;;;;5094049;28;20064;-66
2023/07/02 12:54:25;;;;;;;7.40;1.77;;;;;;;;;;5077179;28;20456;-67
2023/07/02 12:56:51;;;;;;;8.32;1.75;;;;;;;;;;5094019;28;20101;-68
2023/07/02 12:59:17;;;;;;;10.55;2.10;;;;;;;;;;5095248;28;20044;-67
2023/07/02 13:01:44;;;;;;;7.18;1.92;;;;;;;;;;5093909;28;20539;-68
2023/07/02 13:04:10;;;;;;;12.45;1.67;;;;;;;;;;5076831;28;20052;-67
2023/07/02 13:06:40;;;;;;;6.82;1.90;;;;;;;;;;5094558;28;20044;-68
2023/07/02 13:09:06;;;;;;;10.52;2.15;;;;;;;;;;5095174;28;20052;-67
2023/07/02 13:11:32;;;;;;;;;;;;;;;;;;5101416;28;20433;-67
2023/07/02 13:13:58;;;;;;;5.65;2.00;;;;;;;;;;5114422;28;19945;-70
2023/07/02 13:16:25;;;;;;;9.10;2.30;;;;;;;;;;5114628;28;20054;-67